sensor_id;sensor_type;location;lat;lon;timestamp;P1;durP1;ratioP1;P2;durP2;ratioP2
19189;SDS011;9727;50.200;19.038;2023-01-10T00:00:18;31.07;;;18.03;;
19189;SDS011;9727;50.200;19.038;2023-01-10T00:02:45;29.70;;;18.50;;
19189;SDS011;9727;50.200;19.038;2023-01-10T00:05:11;29.27;;;18.37;;
19189;SDS011;9727;50.200;19.038;2023-01-10T00:07:38;32.00;;;18.93;;
19189;SDS011;9727;50.200;19.038;2023-01-10T00:10:05;27.17;;;17.40;;
19189;SDS011;9727;50.200;19.038;2023-01-10T00:12:33;29.20;;;17.90;;
19189;SDS011;9727;50.200;19.038;2023-01-10T00:15:17;27.30;;;17.33;;
19189;SDS011;9727;50.200;19.038;2023-01-10T00:17:43;27.97;;;17.73;;
19189;SDS011;9727;50.200;19.038;2023-01-10T00:20:10;27.33;;;16.97;;
19189;SDS011;9727;50.200;19.038;2023-01-10T00:22:37;28.57;;;16.13;;
19189;SDS011;9727;50.200;19.038;2023-01-10T00:25:04;29.50;;;17.17;;
19189;SDS011;9727;50.200;19.038;2023-01-10T00:27:30;24.80;;;16.57;;
19189;SDS011;9727;50.200;19.038;2023-01-10T00:29:58;28.60;;;16.87;;
19189;SDS011;9727;50.200;19.038;2023-01-10T00:32:31;27.73;;;17.73;;
19189;SDS011;9727;50.200;19.038;2023-01-10T00:34:57;28.97;;;17.50;;
19189;SDS011;9727;50.200;19.038;2023-01-10T00:37:24;28.77;;;18.23;;
19189;SDS011;9727;50.200;19.038;2023-01-10T00:39:50;30.53;;;19.07;;
19189;SDS011;9727;50.200;19.038;2023-01-10T00:42:17;32.93;;;19.03;;
19189;SDS011;9727;50.200;19.038;2023-01-10T00:45:02;29.43;;;17.63;;
19189;SDS011;9727;50.200;19.038;2023-01-10T00:47:29;28.37;;;17.87;;
19189;SDS011;9727;50.200;19.038;2023-01-10T00:49:56;28.63;;;16.83;;
19189;SDS011;9727;50.200;19.038;2023-01-10T00:52:23;28.73;;;16.23;;
19189;SDS011;9727;50.200;19.038;2023-01-10T00:54:50;24.77;;;15.17;;
19189;SDS011;9727;50.200;19.038;2023-01-10T00:57:16;25.00;;;14.70;;
19189;SDS011;9727;50.200;19.038;2023-01-10T00:59:43;21.87;;;12.43;;
19189;SDS011;9727;50.200;19.038;2023-01-10T01:02:11;21.33;;;12.43;;
19189;SDS011;9727;50.200;19.038;2023-01-10T01:04:37;17.30;;;11.00;;
19189;SDS011;9727;50.200;19.038;2023-01-10T01:07:04;17.80;;;11.17;;
19189;SDS011;9727;50.200;19.038;2023-01-10T01:09:30;19.87;;;11.33;;
19189;SDS011;9727;50.200;19.038;2023-01-10T01:11:57;16.43;;;10.50;;
19189;SDS011;9727;50.200;19.038;2023-01-10T01:14:23;18.17;;;10.67;;
19189;SDS011;9727;50.200;19.038;2023-01-10T01:16:50;18.90;;;10.70;;
19189;SDS011;9727;50.200;19.038;2023-01-10T01:19:18;18.60;;;10.13;;
19189;SDS011;9727;50.200;19.038;2023-01-10T01:21:45;18.97;;;10.23;;
19189;SDS011;9727;50.200;19.038;2023-01-10T01:24:11;17.67;;;10.03;;
19189;SDS011;9727;50.200;19.038;2023-01-10T01:26:38;18.27;;;10.87;;
19189;SDS011;9727;50.200;19.038;2023-01-10T01:29:06;21.83;;;11.07;;
19189;SDS011;9727;50.200;19.038;2023-01-10T01:31:33;21.50;;;11.47;;
19189;SDS011;9727;50.200;19.038;2023-01-10T01:33:59;17.73;;;10.53;;
19189;SDS011;9727;50.200;19.038;2023-01-10T01:36:27;19.13;;;10.20;;
19189;SDS011;9727;50.200;19.038;2023-01-10T01:38:54;18.63;;;11.13;;
19189;SDS011;9727;50.200;19.038;2023-01-10T01:41:20;17.93;;;10.13;;
19189;SDS011;9727;50.200;19.038;2023-01-10T01:44:05;19.37;;;11.10;;
19189;SDS011;9727;50.200;19.038;2023-01-10T01:46:33;18.83;;;10.73;;
19189;SDS011;9727;50.200;19.038;2023-01-10T01:49:00;24.77;;;10.67;;
19189;SDS011;9727;50.200;19.038;2023-01-10T01:51:28;17.77;;;10.83;;
19189;SDS011;9727;50.200;19.038;2023-01-10T01:53:56;16.23;;;10.43;;
19189;SDS011;9727;50.200;19.038;2023-01-10T01:56:24;17.37;;;10.43;;
19189;SDS011;9727;50.200;19.038;2023-01-10T01:58:53;21.07;;;10.93;;
19189;SDS011;9727;50.200;19.038;2023-01-10T02:01:23;15.97;;;9.83;;
19189;SDS011;9727;50.200;19.038;2023-01-10T02:03:50;16.70;;;9.80;;
19189;SDS011;9727;50.200;19.038;2023-01-10T02:06:19;17.20;;;10.30;;
19189;SDS011;9727;50.200;19.038;2023-01-10T02:08:49;16.87;;;9.57;;
19189;SDS011;9727;50.200;19.038;2023-01-10T02:11:18;16.33;;;10.17;;
19189;SDS011;9727;50.200;19.038;2023-01-10T02:13:44;18.43;;;10.23;;
19189;SDS011;9727;50.200;19.038;2023-01-10T02:16:11;16.73;;;9.80;;
19189;SDS011;9727;50.200;19.038;2023-01-10T02:18:38;17.47;;;9.63;;
19189;SDS011;9727;50.200;19.038;2023-01-10T02:21:11;16.50;;;9.87;;
19189;SDS011;9727;50.200;19.038;2023-01-10T02:26:45;18.47;;;9.13;;
19189;SDS011;9727;50.200;19.038;2023-01-10T02:29:23;20.50;;;9.50;;
19189;SDS011;9727;50.200;19.038;2023-01-10T02:32:10;15.77;;;9.00;;
19189;SDS011;9727;50.200;19.038;2023-01-10T02:34:41;16.13;;;8.43;;
19189;SDS011;9727;50.200;19.038;2023-01-10T02:37:12;14.17;;;7.63;;
19189;SDS011;9727;50.200;19.038;2023-01-10T02:39:43;14.73;;;8.43;;
19189;SDS011;9727;50.200;19.038;2023-01-10T02:42:12;14.40;;;7.93;;
19189;SDS011;9727;50.200;19.038;2023-01-10T02:44:41;13.97;;;7.77;;
19189;SDS011;9727;50.200;19.038;2023-01-10T02:47:08;16.13;;;8.80;;
19189;SDS011;9727;50.200;19.038;2023-01-10T02:49:41;13.30;;;7.87;;
19189;SDS011;9727;50.200;19.038;2023-01-10T02:52:08;16.87;;;9.37;;
19189;SDS011;9727;50.200;19.038;2023-01-10T02:54:44;16.30;;;9.00;;
19189;SDS011;9727;50.200;19.038;2023-01-10T02:57:17;14.67;;;8.67;;
19189;SDS011;9727;50.200;19.038;2023-01-10T03:02:36;17.20;;;9.17;;
19189;SDS011;9727;50.200;19.038;2023-01-10T03:05:09;18.10;;;9.80;;
19189;SDS011;9727;50.200;19.038;2023-01-10T03:07:40;17.80;;;9.80;;
19189;SDS011;9727;50.200;19.038;2023-01-10T03:10:09;15.60;;;9.63;;
19189;SDS011;9727;50.200;19.038;2023-01-10T03:12:40;16.43;;;10.30;;
19189;SDS011;9727;50.200;19.038;2023-01-10T03:15:08;14.80;;;9.43;;
19189;SDS011;9727;50.200;19.038;2023-01-10T03:17:36;18.43;;;11.57;;
19189;SDS011;9727;50.200;19.038;2023-01-10T03:20:04;16.20;;;10.57;;
19189;SDS011;9727;50.200;19.038;2023-01-10T03:22:42;17.73;;;10.70;;
19189;SDS011;9727;50.200;19.038;2023-01-10T03:25:09;13.13;;;8.80;;
19189;SDS011;9727;50.200;19.038;2023-01-10T03:27:37;16.33;;;9.13;;
19189;SDS011;9727;50.200;19.038;2023-01-10T03:30:09;14.60;;;8.67;;
19189;SDS011;9727;50.200;19.038;2023-01-10T03:32:38;13.60;;;8.50;;
19189;SDS011;9727;50.200;19.038;2023-01-10T03:35:05;15.63;;;8.17;;
19189;SDS011;9727;50.200;19.038;2023-01-10T03:37:35;14.57;;;8.80;;
19189;SDS011;9727;50.200;19.038;2023-01-10T03:40:06;13.77;;;9.00;;
19189;SDS011;9727;50.200;19.038;2023-01-10T03:42:34;13.77;;;7.40;;
19189;SDS011;9727;50.200;19.038;2023-01-10T03:45:16;12.17;;;7.07;;
19189;SDS011;9727;50.200;19.038;2023-01-10T03:47:47;14.60;;;8.67;;
19189;SDS011;9727;50.200;19.038;2023-01-10T03:50:25;13.90;;;8.67;;
19189;SDS011;9727;50.200;19.038;2023-01-10T03:52:54;14.77;;;8.50;;
19189;SDS011;9727;50.200;19.038;2023-01-10T03:55:23;12.93;;;8.47;;
19189;SDS011;9727;50.200;19.038;2023-01-10T03:57:50;13.43;;;7.17;;
19189;SDS011;9727;50.200;19.038;2023-01-10T04:00:17;14.97;;;8.60;;
19189;SDS011;9727;50.200;19.038;2023-01-10T04:02:43;14.73;;;8.73;;
19189;SDS011;9727;50.200;19.038;2023-01-10T04:05:10;15.40;;;8.93;;
19189;SDS011;9727;50.200;19.038;2023-01-10T04:07:37;13.97;;;8.80;;
19189;SDS011;9727;50.200;19.038;2023-01-10T04:10:05;16.10;;;9.33;;
19189;SDS011;9727;50.200;19.038;2023-01-10T04:12:32;14.43;;;9.60;;
19189;SDS011;9727;50.200;19.038;2023-01-10T04:14:58;19.20;;;12.27;;
19189;SDS011;9727;50.200;19.038;2023-01-10T04:17:25;20.33;;;12.20;;
19189;SDS011;9727;50.200;19.038;2023-01-10T04:19:52;19.23;;;11.70;;
19189;SDS011;9727;50.200;19.038;2023-01-10T04:22:19;21.07;;;11.70;;
19189;SDS011;9727;50.200;19.038;2023-01-10T04:24:45;20.30;;;13.17;;
19189;SDS011;9727;50.200;19.038;2023-01-10T04:27:17;30.50;;;15.70;;
19189;SDS011;9727;50.200;19.038;2023-01-10T04:29:44;34.57;;;17.60;;
19189;SDS011;9727;50.200;19.038;2023-01-10T04:32:11;38.93;;;21.60;;
19189;SDS011;9727;50.200;19.038;2023-01-10T04:34:37;24.60;;;13.93;;
19189;SDS011;9727;50.200;19.038;2023-01-10T04:37:04;21.23;;;11.80;;
19189;SDS011;9727;50.200;19.038;2023-01-10T04:39:31;19.83;;;11.97;;
19189;SDS011;9727;50.200;19.038;2023-01-10T04:41:57;19.60;;;11.20;;
19189;SDS011;9727;50.200;19.038;2023-01-10T04:44:25;17.33;;;12.00;;
19189;SDS011;9727;50.200;19.038;2023-01-10T04:46:52;19.70;;;11.07;;
19189;SDS011;9727;50.200;19.038;2023-01-10T04:49:18;19.90;;;11.77;;
19189;SDS011;9727;50.200;19.038;2023-01-10T04:51:45;21.20;;;12.80;;
19189;SDS011;9727;50.200;19.038;2023-01-10T04:54:11;24.53;;;14.13;;
19189;SDS011;9727;50.200;19.038;2023-01-10T04:56:38;20.60;;;13.07;;
19189;SDS011;9727;50.200;19.038;2023-01-10T04:59:05;27.20;;;13.50;;
19189;SDS011;9727;50.200;19.038;2023-01-10T05:01:33;22.93;;;14.73;;
19189;SDS011;9727;50.200;19.038;2023-01-10T05:04:03;26.30;;;16.00;;
19189;SDS011;9727;50.200;19.038;2023-01-10T05:06:30;22.47;;;14.60;;
19189;SDS011;9727;50.200;19.038;2023-01-10T05:08:57;25.53;;;15.97;;
19189;SDS011;9727;50.200;19.038;2023-01-10T05:11:24;24.80;;;15.40;;
19189;SDS011;9727;50.200;19.038;2023-01-10T05:13:50;24.37;;;15.00;;
19189;SDS011;9727;50.200;19.038;2023-01-10T05:16:17;21.77;;;14.50;;
19189;SDS011;9727;50.200;19.038;2023-01-10T05:18:44;21.40;;;14.10;;
19189;SDS011;9727;50.200;19.038;2023-01-10T05:21:11;23.57;;;13.63;;
19189;SDS011;9727;50.200;19.038;2023-01-10T05:23:39;23.30;;;14.23;;
19189;SDS011;9727;50.200;19.038;2023-01-10T05:26:06;20.37;;;13.33;;
19189;SDS011;9727;50.200;19.038;2023-01-10T05:28:32;24.10;;;13.87;;
19189;SDS011;9727;50.200;19.038;2023-01-10T05:30:59;22.80;;;13.67;;
19189;SDS011;9727;50.200;19.038;2023-01-10T05:33:26;21.97;;;13.60;;
19189;SDS011;9727;50.200;19.038;2023-01-10T05:35:54;24.13;;;14.17;;
19189;SDS011;9727;50.200;19.038;2023-01-10T05:38:20;24.37;;;14.10;;
19189;SDS011;9727;50.200;19.038;2023-01-10T05:40:53;27.33;;;15.73;;
19189;SDS011;9727;50.200;19.038;2023-01-10T05:43:19;23.50;;;14.90;;
19189;SDS011;9727;50.200;19.038;2023-01-10T05:45:46;26.00;;;15.60;;
19189;SDS011;9727;50.200;19.038;2023-01-10T05:48:12;25.23;;;16.10;;
19189;SDS011;9727;50.200;19.038;2023-01-10T05:50:39;24.87;;;15.80;;
19189;SDS011;9727;50.200;19.038;2023-01-10T05:53:07;27.40;;;17.43;;
19189;SDS011;9727;50.200;19.038;2023-01-10T05:55:33;30.00;;;17.93;;
19189;SDS011;9727;50.200;19.038;2023-01-10T05:58:00;27.37;;;17.50;;
19189;SDS011;9727;50.200;19.038;2023-01-10T06:00:27;31.43;;;18.17;;
19189;SDS011;9727;50.200;19.038;2023-01-10T06:02:54;35.60;;;19.50;;
19189;SDS011;9727;50.200;19.038;2023-01-10T06:05:20;31.00;;;18.40;;
19189;SDS011;9727;50.200;19.038;2023-01-10T06:07:47;33.23;;;18.60;;
19189;SDS011;9727;50.200;19.038;2023-01-10T06:10:15;28.50;;;17.63;;
19189;SDS011;9727;50.200;19.038;2023-01-10T06:12:42;30.60;;;19.07;;
19189;SDS011;9727;50.200;19.038;2023-01-10T06:15:09;34.67;;;20.20;;
19189;SDS011;9727;50.200;19.038;2023-01-10T06:17:35;32.70;;;19.47;;
19189;SDS011;9727;50.200;19.038;2023-01-10T06:20:02;34.17;;;20.47;;
19189;SDS011;9727;50.200;19.038;2023-01-10T06:22:29;37.03;;;20.33;;
19189;SDS011;9727;50.200;19.038;2023-01-10T06:24:55;27.57;;;16.83;;
19189;SDS011;9727;50.200;19.038;2023-01-10T06:27:23;27.80;;;16.57;;
19189;SDS011;9727;50.200;19.038;2023-01-10T06:29:50;24.77;;;14.80;;
19189;SDS011;9727;50.200;19.038;2023-01-10T06:32:16;22.53;;;14.00;;
19189;SDS011;9727;50.200;19.038;2023-01-10T06:34:43;22.57;;;14.13;;
19189;SDS011;9727;50.200;19.038;2023-01-10T06:37:09;21.07;;;12.80;;
19189;SDS011;9727;50.200;19.038;2023-01-10T06:39:36;18.67;;;11.67;;
19189;SDS011;9727;50.200;19.038;2023-01-10T06:42:03;17.90;;;10.43;;
19189;SDS011;9727;50.200;19.038;2023-01-10T06:44:31;16.80;;;10.80;;
19189;SDS011;9727;50.200;19.038;2023-01-10T06:46:58;18.57;;;10.80;;
19189;SDS011;9727;50.200;19.038;2023-01-10T06:49:24;18.50;;;10.57;;
19189;SDS011;9727;50.200;19.038;2023-01-10T06:51:51;17.43;;;10.13;;
19189;SDS011;9727;50.200;19.038;2023-01-10T06:54:17;16.50;;;9.83;;
19189;SDS011;9727;50.200;19.038;2023-01-10T06:56:46;16.17;;;9.77;;
19189;SDS011;9727;50.200;19.038;2023-01-10T06:59:12;18.87;;;10.13;;
19189;SDS011;9727;50.200;19.038;2023-01-10T07:01:40;16.53;;;10.20;;
19189;SDS011;9727;50.200;19.038;2023-01-10T07:04:07;17.00;;;9.73;;
19189;SDS011;9727;50.200;19.038;2023-01-10T07:06:35;17.10;;;9.40;;
19189;SDS011;9727;50.200;19.038;2023-01-10T07:09:01;15.57;;;9.57;;
19189;SDS011;9727;50.200;19.038;2023-01-10T07:11:28;19.77;;;10.00;;
19189;SDS011;9727;50.200;19.038;2023-01-10T07:13:56;14.53;;;8.20;;
19189;SDS011;9727;50.200;19.038;2023-01-10T07:16:23;13.50;;;8.47;;
19189;SDS011;9727;50.200;19.038;2023-01-10T07:18:51;12.63;;;8.07;;
19189;SDS011;9727;50.200;19.038;2023-01-10T07:21:18;15.30;;;8.47;;
19189;SDS011;9727;50.200;19.038;2023-01-10T07:23:46;14.67;;;8.33;;
19189;SDS011;9727;50.200;19.038;2023-01-10T07:26:12;15.37;;;8.10;;
19189;SDS011;9727;50.200;19.038;2023-01-10T07:28:41;13.07;;;7.73;;
19189;SDS011;9727;50.200;19.038;2023-01-10T07:31:08;14.67;;;7.90;;
19189;SDS011;9727;50.200;19.038;2023-01-10T07:33:35;14.03;;;8.37;;
19189;SDS011;9727;50.200;19.038;2023-01-10T07:36:03;15.37;;;8.00;;
19189;SDS011;9727;50.200;19.038;2023-01-10T07:38:30;13.23;;;7.87;;
19189;SDS011;9727;50.200;19.038;2023-01-10T07:40:57;16.33;;;8.27;;
19189;SDS011;9727;50.200;19.038;2023-01-10T07:43:23;14.83;;;7.87;;
19189;SDS011;9727;50.200;19.038;2023-01-10T07:45:50;12.53;;;7.30;;
19189;SDS011;9727;50.200;19.038;2023-01-10T07:48:16;12.27;;;6.90;;
19189;SDS011;9727;50.200;19.038;2023-01-10T07:53:29;18.33;;;7.27;;
19189;SDS011;9727;50.200;19.038;2023-01-10T07:55:57;12.13;;;7.10;;
19189;SDS011;9727;50.200;19.038;2023-01-10T07:58:24;12.63;;;7.50;;
19189;SDS011;9727;50.200;19.038;2023-01-10T08:00:50;15.13;;;6.73;;
19189;SDS011;9727;50.200;19.038;2023-01-10T08:03:17;15.70;;;7.73;;
19189;SDS011;9727;50.200;19.038;2023-01-10T08:05:43;14.87;;;7.67;;
19189;SDS011;9727;50.200;19.038;2023-01-10T08:08:11;16.33;;;7.43;;
19189;SDS011;9727;50.200;19.038;2023-01-10T08:10:39;12.10;;;7.13;;
19189;SDS011;9727;50.200;19.038;2023-01-10T08:13:06;13.30;;;6.37;;
19189;SDS011;9727;50.200;19.038;2023-01-10T08:15:32;13.50;;;7.37;;
19189;SDS011;9727;50.200;19.038;2023-01-10T08:17:59;10.57;;;6.47;;
19189;SDS011;9727;50.200;19.038;2023-01-10T08:20:26;12.00;;;6.20;;
19189;SDS011;9727;50.200;19.038;2023-01-10T08:22:52;16.33;;;6.63;;
19189;SDS011;9727;50.200;19.038;2023-01-10T08:25:19;11.33;;;5.43;;
19189;SDS011;9727;50.200;19.038;2023-01-10T08:27:47;11.40;;;5.80;;
19189;SDS011;9727;50.200;19.038;2023-01-10T08:30:13;11.27;;;5.93;;
19189;SDS011;9727;50.200;19.038;2023-01-10T08:32:40;11.67;;;6.27;;
19189;SDS011;9727;50.200;19.038;2023-01-10T08:35:07;12.30;;;6.13;;
19189;SDS011;9727;50.200;19.038;2023-01-10T08:37:33;12.37;;;6.70;;
19189;SDS011;9727;50.200;19.038;2023-01-10T08:40:00;12.83;;;5.87;;
19189;SDS011;9727;50.200;19.038;2023-01-10T08:42:27;10.03;;;6.00;;
19189;SDS011;9727;50.200;19.038;2023-01-10T08:44:55;14.23;;;8.30;;
19189;SDS011;9727;50.200;19.038;2023-01-10T08:47:22;14.00;;;7.10;;
19189;SDS011;9727;50.200;19.038;2023-01-10T08:49:57;13.27;;;7.20;;
19189;SDS011;9727;50.200;19.038;2023-01-10T08:52:23;11.50;;;6.67;;
19189;SDS011;9727;50.200;19.038;2023-01-10T08:54:50;12.77;;;7.33;;
19189;SDS011;9727;50.200;19.038;2023-01-10T08:57:16;14.20;;;7.40;;
19189;SDS011;9727;50.200;19.038;2023-01-10T08:59:43;15.23;;;7.17;;
19189;SDS011;9727;50.200;19.038;2023-01-10T09:02:11;14.50;;;7.97;;
19189;SDS011;9727;50.200;19.038;2023-01-10T09:04:38;15.33;;;8.60;;
19189;SDS011;9727;50.200;19.038;2023-01-10T09:07:04;12.67;;;8.27;;
19189;SDS011;9727;50.200;19.038;2023-01-10T09:09:31;15.90;;;8.23;;
19189;SDS011;9727;50.200;19.038;2023-01-10T09:11:57;13.13;;;8.40;;
19189;SDS011;9727;50.200;19.038;2023-01-10T09:14:24;16.53;;;8.70;;
19189;SDS011;9727;50.200;19.038;2023-01-10T09:16:50;14.07;;;8.10;;
19189;SDS011;9727;50.200;19.038;2023-01-10T09:19:18;15.00;;;8.67;;
19189;SDS011;9727;50.200;19.038;2023-01-10T09:21:45;18.87;;;9.90;;
19189;SDS011;9727;50.200;19.038;2023-01-10T09:24:11;20.77;;;10.97;;
19189;SDS011;9727;50.200;19.038;2023-01-10T09:26:38;21.53;;;12.73;;
19189;SDS011;9727;50.200;19.038;2023-01-10T09:29:05;19.13;;;11.90;;
19189;SDS011;9727;50.200;19.038;2023-01-10T09:31:31;23.97;;;14.00;;
19189;SDS011;9727;50.200;19.038;2023-01-10T09:33:58;23.23;;;14.83;;
19189;SDS011;9727;50.200;19.038;2023-01-10T09:36:26;27.80;;;15.33;;
19189;SDS011;9727;50.200;19.038;2023-01-10T09:38:52;25.47;;;15.60;;
19189;SDS011;9727;50.200;19.038;2023-01-10T09:41:24;25.53;;;14.20;;
19189;SDS011;9727;50.200;19.038;2023-01-10T09:44:00;25.50;;;16.37;;
19189;SDS011;9727;50.200;19.038;2023-01-10T09:46:30;32.20;;;16.70;;
19189;SDS011;9727;50.200;19.038;2023-01-10T09:49:01;25.07;;;15.70;;
19189;SDS011;9727;50.200;19.038;2023-01-10T09:51:33;33.50;;;19.93;;
19189;SDS011;9727;50.200;19.038;2023-01-10T09:54:02;29.80;;;17.63;;
19189;SDS011;9727;50.200;19.038;2023-01-10T09:56:30;34.60;;;19.23;;
19189;SDS011;9727;50.200;19.038;2023-01-10T09:58:58;32.63;;;19.73;;
19189;SDS011;9727;50.200;19.038;2023-01-10T10:01:28;31.97;;;20.33;;
19189;SDS011;9727;50.200;19.038;2023-01-10T10:03:57;35.33;;;21.00;;
19189;SDS011;9727;50.200;19.038;2023-01-10T10:06:27;34.27;;;20.23;;
19189;SDS011;9727;50.200;19.038;2023-01-10T10:08:55;32.43;;;19.57;;
19189;SDS011;9727;50.200;19.038;2023-01-10T10:11:28;29.80;;;18.90;;
19189;SDS011;9727;50.200;19.038;2023-01-10T10:13:59;32.47;;;19.20;;
19189;SDS011;9727;50.200;19.038;2023-01-10T10:16:29;32.10;;;18.60;;
19189;SDS011;9727;50.200;19.038;2023-01-10T10:19:06;31.17;;;19.50;;
19189;SDS011;9727;50.200;19.038;2023-01-10T10:21:37;32.00;;;19.47;;
19189;SDS011;9727;50.200;19.038;2023-01-10T10:24:14;33.57;;;19.63;;
19189;SDS011;9727;50.200;19.038;2023-01-10T10:26:45;35.63;;;19.03;;
19189;SDS011;9727;50.200;19.038;2023-01-10T10:29:23;34.17;;;19.37;;
19189;SDS011;9727;50.200;19.038;2023-01-10T10:32:03;31.43;;;18.23;;
19189;SDS011;9727;50.200;19.038;2023-01-10T10:34:32;33.53;;;20.23;;
19189;SDS011;9727;50.200;19.038;2023-01-10T10:37:02;34.33;;;19.90;;
19189;SDS011;9727;50.200;19.038;2023-01-10T10:39:33;39.93;;;21.43;;
19189;SDS011;9727;50.200;19.038;2023-01-10T10:42:01;36.20;;;21.90;;
19189;SDS011;9727;50.200;19.038;2023-01-10T10:44:31;36.53;;;20.33;;
19189;SDS011;9727;50.200;19.038;2023-01-10T10:46:58;38.23;;;21.57;;
19189;SDS011;9727;50.200;19.038;2023-01-10T10:49:29;35.30;;;20.53;;
19189;SDS011;9727;50.200;19.038;2023-01-10T10:51:58;33.97;;;19.90;;
19189;SDS011;9727;50.200;19.038;2023-01-10T10:54:27;32.90;;;19.40;;
19189;SDS011;9727;50.200;19.038;2023-01-10T10:56:55;45.40;;;22.00;;
19189;SDS011;9727;50.200;19.038;2023-01-10T10:59:23;39.10;;;20.87;;
19189;SDS011;9727;50.200;19.038;2023-01-10T11:01:49;32.50;;;19.27;;
19189;SDS011;9727;50.200;19.038;2023-01-10T11:04:18;29.63;;;17.27;;
19189;SDS011;9727;50.200;19.038;2023-01-10T11:06:44;28.47;;;17.40;;
19189;SDS011;9727;50.200;19.038;2023-01-10T11:09:14;29.93;;;17.50;;
19189;SDS011;9727;50.200;19.038;2023-01-10T11:11:42;29.70;;;17.47;;
19189;SDS011;9727;50.200;19.038;2023-01-10T11:14:11;28.77;;;17.40;;
19189;SDS011;9727;50.200;19.038;2023-01-10T11:16:38;32.67;;;16.20;;
19189;SDS011;9727;50.200;19.038;2023-01-10T11:19:09;26.77;;;16.23;;
19189;SDS011;9727;50.200;19.038;2023-01-10T11:21:36;28.47;;;16.07;;
19189;SDS011;9727;50.200;19.038;2023-01-10T11:24:04;30.33;;;17.17;;
19189;SDS011;9727;50.200;19.038;2023-01-10T11:26:34;28.20;;;16.40;;
19189;SDS011;9727;50.200;19.038;2023-01-10T11:29:05;27.00;;;16.67;;
19189;SDS011;9727;50.200;19.038;2023-01-10T11:31:33;28.57;;;16.30;;
19189;SDS011;9727;50.200;19.038;2023-01-10T11:34:01;30.43;;;17.77;;
19189;SDS011;9727;50.200;19.038;2023-01-10T11:36:31;28.47;;;17.23;;
19189;SDS011;9727;50.200;19.038;2023-01-10T11:39:16;32.50;;;17.87;;
19189;SDS011;9727;50.200;19.038;2023-01-10T11:41:43;30.33;;;18.13;;
19189;SDS011;9727;50.200;19.038;2023-01-10T11:44:16;28.27;;;16.90;;
19189;SDS011;9727;50.200;19.038;2023-01-10T11:46:47;28.33;;;16.80;;
19189;SDS011;9727;50.200;19.038;2023-01-10T11:49:16;28.33;;;17.47;;
19189;SDS011;9727;50.200;19.038;2023-01-10T11:51:46;31.20;;;18.03;;
19189;SDS011;9727;50.200;19.038;2023-01-10T11:54:14;34.23;;;18.57;;
19189;SDS011;9727;50.200;19.038;2023-01-10T11:56:42;31.27;;;18.63;;
19189;SDS011;9727;50.200;19.038;2023-01-10T11:59:16;30.97;;;18.83;;
19189;SDS011;9727;50.200;19.038;2023-01-10T12:01:44;29.97;;;19.20;;
19189;SDS011;9727;50.200;19.038;2023-01-10T12:04:14;29.30;;;18.10;;
19189;SDS011;9727;50.200;19.038;2023-01-10T12:06:42;28.37;;;17.47;;
19189;SDS011;9727;50.200;19.038;2023-01-10T12:09:22;26.53;;;16.93;;
19189;SDS011;9727;50.200;19.038;2023-01-10T12:12:00;27.70;;;18.50;;
19189;SDS011;9727;50.200;19.038;2023-01-10T12:14:26;31.00;;;18.30;;
19189;SDS011;9727;50.200;19.038;2023-01-10T12:16:57;34.13;;;19.20;;
19189;SDS011;9727;50.200;19.038;2023-01-10T12:19:26;33.50;;;18.87;;
19189;SDS011;9727;50.200;19.038;2023-01-10T12:21:53;30.97;;;18.10;;
19189;SDS011;9727;50.200;19.038;2023-01-10T12:24:23;28.57;;;18.83;;
19189;SDS011;9727;50.200;19.038;2023-01-10T12:26:52;29.73;;;18.30;;
19189;SDS011;9727;50.200;19.038;2023-01-10T12:29:19;30.07;;;18.43;;
19189;SDS011;9727;50.200;19.038;2023-01-10T12:31:48;26.87;;;17.83;;
19189;SDS011;9727;50.200;19.038;2023-01-10T12:34:16;27.83;;;18.00;;
19189;SDS011;9727;50.200;19.038;2023-01-10T12:36:57;29.17;;;18.53;;
19189;SDS011;9727;50.200;19.038;2023-01-10T12:39:26;27.67;;;18.23;;
19189;SDS011;9727;50.200;19.038;2023-01-10T12:41:58;26.43;;;16.80;;
19189;SDS011;9727;50.200;19.038;2023-01-10T12:44:46;30.60;;;18.03;;
19189;SDS011;9727;50.200;19.038;2023-01-10T12:47:19;27.23;;;17.10;;
19189;SDS011;9727;50.200;19.038;2023-01-10T12:49:50;28.57;;;17.03;;
19189;SDS011;9727;50.200;19.038;2023-01-10T12:52:29;26.63;;;16.57;;
19189;SDS011;9727;50.200;19.038;2023-01-10T12:54:57;23.43;;;15.27;;
19189;SDS011;9727;50.200;19.038;2023-01-10T12:57:25;25.83;;;16.20;;
19189;SDS011;9727;50.200;19.038;2023-01-10T12:59:54;25.87;;;16.23;;
19189;SDS011;9727;50.200;19.038;2023-01-10T13:02:23;25.67;;;16.23;;
19189;SDS011;9727;50.200;19.038;2023-01-10T13:04:51;27.63;;;16.63;;
19189;SDS011;9727;50.200;19.038;2023-01-10T13:07:18;26.93;;;17.47;;
19189;SDS011;9727;50.200;19.038;2023-01-10T13:09:48;26.03;;;16.27;;
19189;SDS011;9727;50.200;19.038;2023-01-10T13:12:16;22.53;;;14.97;;
19189;SDS011;9727;50.200;19.038;2023-01-10T13:14:47;26.73;;;15.97;;
19189;SDS011;9727;50.200;19.038;2023-01-10T13:17:19;23.67;;;15.53;;
19189;SDS011;9727;50.200;19.038;2023-01-10T13:22:32;25.57;;;15.97;;
19189;SDS011;9727;50.200;19.038;2023-01-10T13:25:01;30.27;;;17.40;;
19189;SDS011;9727;50.200;19.038;2023-01-10T13:27:29;25.87;;;16.70;;
19189;SDS011;9727;50.200;19.038;2023-01-10T13:29:57;26.73;;;16.27;;
19189;SDS011;9727;50.200;19.038;2023-01-10T13:32:24;25.63;;;17.30;;
19189;SDS011;9727;50.200;19.038;2023-01-10T13:34:52;29.30;;;17.67;;
19189;SDS011;9727;50.200;19.038;2023-01-10T13:37:20;29.17;;;18.47;;
19189;SDS011;9727;50.200;19.038;2023-01-10T13:39:49;35.27;;;19.00;;
19189;SDS011;9727;50.200;19.038;2023-01-10T13:42:31;26.77;;;17.97;;
19189;SDS011;9727;50.200;19.038;2023-01-10T13:45:19;32.90;;;18.60;;
19189;SDS011;9727;50.200;19.038;2023-01-10T13:47:57;29.77;;;18.23;;
19189;SDS011;9727;50.200;19.038;2023-01-10T13:56:16;30.53;;;19.30;;
19189;SDS011;9727;50.200;19.038;2023-01-10T13:58:54;29.20;;;18.27;;
19189;SDS011;9727;50.200;19.038;2023-01-10T14:01:38;29.23;;;18.93;;
19189;SDS011;9727;50.200;19.038;2023-01-10T14:04:22;29.77;;;18.93;;
19189;SDS011;9727;50.200;19.038;2023-01-10T14:06:53;38.37;;;21.27;;
19189;SDS011;9727;50.200;19.038;2023-01-10T14:09:34;30.53;;;18.87;;
19189;SDS011;9727;50.200;19.038;2023-01-10T14:12:01;29.20;;;18.30;;
19189;SDS011;9727;50.200;19.038;2023-01-10T14:14:31;27.67;;;18.00;;
19189;SDS011;9727;50.200;19.038;2023-01-10T14:17:11;29.07;;;18.27;;
19189;SDS011;9727;50.200;19.038;2023-01-10T14:19:39;28.73;;;18.90;;
19189;SDS011;9727;50.200;19.038;2023-01-10T14:22:17;31.70;;;19.60;;
19189;SDS011;9727;50.200;19.038;2023-01-10T14:24:49;29.57;;;19.27;;
19189;SDS011;9727;50.200;19.038;2023-01-10T14:27:17;28.70;;;18.20;;
19189;SDS011;9727;50.200;19.038;2023-01-10T14:29:46;26.93;;;18.17;;
19189;SDS011;9727;50.200;19.038;2023-01-10T14:32:16;27.43;;;17.70;;
19189;SDS011;9727;50.200;19.038;2023-01-10T14:34:44;27.27;;;17.43;;
19189;SDS011;9727;50.200;19.038;2023-01-10T14:37:13;27.67;;;18.50;;
19189;SDS011;9727;50.200;19.038;2023-01-10T14:39:41;25.80;;;18.13;;
19189;SDS011;9727;50.200;19.038;2023-01-10T14:42:11;27.03;;;18.20;;
19189;SDS011;9727;50.200;19.038;2023-01-10T14:44:40;26.90;;;18.20;;
19189;SDS011;9727;50.200;19.038;2023-01-10T14:47:24;28.17;;;16.87;;
19189;SDS011;9727;50.200;19.038;2023-01-10T14:49:51;26.90;;;17.17;;
19189;SDS011;9727;50.200;19.038;2023-01-10T14:52:20;25.93;;;16.93;;